Terminal Aerodrome Forecast
Issued by NWS

Home | Current Version | Previous Version | Text Only | Print | Product List | Glossary Off
Versions: 1 2 3 4 5 6 7 8 9 10 11 12 13 14 15 16 17 18 19

000
FTUS42 KMHX 191839 AAA
TAFISO
TAF AMD
KISO 191839Z 1919/2018 24005KT P6SM SKC
     FM192300 17005KT P6SM BKN020
     FM200200 VRB03KT 2SM BR BKN007
     FM201000 VRB04KT 3/4SM BR BKN001
     FM201300 VRB04KT P6SM BKN007
     FM201700 20010KT P6SM BKN040
      AMD LTD TO CLD VIS AND WIND=

USA.gov is the U.S. government's official web portal to all federal, state and local government web resources and services.